Time;durP1;ratioP1;P1;durP2;ratioP2;P2;SDS_P1;SDS_P2;PMS_P1;PMS_P2;Temp;Humidity;BMP_temperature;BMP_pressure;BME280_temperature;BME280_humidity;BME280_pressure;Samples;Min_cycle;Max_cycle;Signal;HPM_P1;HPM_P2
2023/04/26 00:02:04;;;;;;;16.60;8.40;;;;;1.70;101330.00;;;;9922528;29;20326;-72
2023/04/26 00:07:06;;;;;;;10.47;5.70;;;;;1.70;101340.00;;;;9928947;29;20231;-72
2023/04/26 00:12:09;;;;;;;13.50;7.07;;;;;1.70;101332.00;;;;9908894;29;20331;-74
2023/04/26 00:17:10;;;;;;;12.67;6.00;;;;;1.70;101341.00;;;;9901087;29;20216;-72
2023/04/26 00:22:12;;;;;;;11.37;5.67;;;;;1.60;101345.00;;;;9902253;29;20211;-73
2023/04/26 00:27:13;;;;;;;11.30;6.40;;;;;1.60;101343.00;;;;9937200;29;20243;-73
2023/04/26 00:32:14;;;;;;;13.37;6.20;;;;;1.60;101339.00;;;;9917539;29;20745;-72
2023/04/26 00:37:15;;;;;;;14.00;5.60;;;;;1.50;101344.00;;;;9912609;29;20227;-73
2023/04/26 00:42:18;;;;;;;12.63;6.27;;;;;1.50;101348.00;;;;9900567;29;20732;-71
2023/04/26 00:47:19;;;;;;;10.57;5.97;;;;;1.50;101343.00;;;;9901952;29;20571;-72
2023/04/26 00:52:22;;;;;;;13.33;5.60;;;;;1.50;101342.00;;;;9945139;29;20585;-72
2023/04/26 00:57:24;;;;;;;12.77;6.30;;;;;1.50;101334.00;;;;9921419;29;20283;-72
2023/04/26 01:02:26;;;;;;;16.17;5.97;;;;;1.50;101341.00;;;;9886103;30;20575;-73
2023/04/26 01:07:27;;;;;;;9.63;6.03;;;;;1.40;101335.00;;;;9913036;29;20230;-72
2023/04/26 01:12:29;;;;;;;9.63;5.60;;;;;1.30;101336.00;;;;9935961;29;20245;-72
2023/04/26 01:17:30;;;;;;;10.87;5.83;;;;;1.20;101349.00;;;;9937608;29;20240;-75
2023/04/26 01:22:32;;;;;;;14.60;6.10;;;;;1.20;101343.00;;;;9892265;29;20322;-72
2023/04/26 01:27:35;;;;;;;15.43;6.63;;;;;1.20;101360.00;;;;9914835;29;20323;-72
2023/04/26 01:32:36;;;;;;;15.30;6.80;;;;;1.20;101352.00;;;;9943729;29;20218;-73
2023/04/26 01:37:37;;;;;;;14.93;6.43;;;;;1.40;101351.00;;;;9922808;29;20782;-73
2023/04/26 01:42:39;;;;;;;13.30;6.90;;;;;1.50;101342.00;;;;9942120;29;20293;-73
2023/04/26 01:47:40;;;;;;;14.80;6.90;;;;;1.50;101347.00;;;;9933926;29;20259;-73
2023/04/26 01:52:41;;;;;;;13.13;6.67;;;;;1.40;101340.00;;;;9905073;29;20219;-73
2023/04/26 01:57:43;;;;;;;11.63;5.97;;;;;1.40;101336.00;;;;9905328;29;20895;-73
2023/04/26 02:02:44;;;;;;;16.83;6.33;;;;;1.20;101332.00;;;;9903875;29;20280;-73
2023/04/26 02:07:46;;;;;;;14.07;6.23;;;;;1.10;101331.00;;;;9919625;29;20234;-73
2023/04/26 02:12:47;;;;;;;10.67;6.37;;;;;1.00;101325.00;;;;9942526;29;20967;-72
2023/04/26 02:17:48;;;;;;;10.67;5.80;;;;;0.90;101318.00;;;;9918084;29;20262;-73
2023/04/26 02:22:50;;;;;;;11.57;6.70;;;;;0.90;101321.00;;;;9888633;29;20709;-73
2023/04/26 02:27:51;;;;;;;9.77;5.83;;;;;0.90;101328.00;;;;9936625;29;20253;-74
2023/04/26 02:32:54;;;;;;;13.60;5.73;;;;;0.80;101315.00;;;;9918604;29;20243;-73
2023/04/26 02:37:55;;;;;;;12.27;7.20;;;;;0.70;101314.00;;;;9958674;29;20862;-73
2023/04/26 02:42:57;;;;;;;13.33;5.73;;;;;0.70;101317.00;;;;9921249;29;20227;-73
2023/04/26 02:47:58;;;;;;;11.00;5.63;;;;;0.60;101314.00;;;;9903089;29;20231;-73
2023/04/26 02:53:00;;;;;;;9.73;5.57;;;;;0.60;101303.00;;;;9935857;29;20242;-72
2023/04/26 02:58:03;;;;;;;15.10;7.17;;;;;0.60;101305.00;;;;9915798;29;20235;-74
2023/04/26 03:03:05;;;;;;;13.27;6.40;;;;;0.60;101310.00;;;;9902356;29;20216;-72
2023/04/26 03:08:07;;;;;;;12.17;6.43;;;;;0.60;101306.00;;;;9919736;29;20306;-72
2023/04/26 03:13:09;;;;;;;13.67;6.33;;;;;0.60;101300.00;;;;9939392;29;20251;-73
2023/04/26 03:18:11;;;;;;;10.07;6.23;;;;;0.70;101309.00;;;;9940608;29;20227;-73
2023/04/26 03:23:12;;;;;;;10.63;5.87;;;;;0.70;101306.00;;;;9938761;29;20651;-73
2023/04/26 03:28:14;;;;;;;11.80;6.43;;;;;0.70;101307.00;;;;9923418;29;20685;-73
2023/04/26 03:33:16;;;;;;;11.90;6.67;;;;;0.70;101306.00;;;;9938539;29;20225;-72
2023/04/26 03:38:18;;;;;;;15.20;7.23;;;;;0.70;101310.00;;;;9890092;29;20232;-73
2023/04/26 03:43:19;;;;;;;12.53;6.77;;;;;0.70;101316.00;;;;9923538;29;20234;-72
2023/04/26 03:48:20;;;;;;;14.97;6.77;;;;;0.70;101312.00;;;;9913152;29;20236;-73
2023/04/26 03:53:22;;;;;;;13.57;6.57;;;;;0.70;101291.00;;;;9901747;29;20237;-72
2023/04/26 03:58:24;;;;;;;14.80;6.20;;;;;0.60;101300.00;;;;9900487;29;20299;-73
2023/04/26 04:03:26;;;;;;;13.43;6.50;;;;;0.60;101303.00;;;;9885869;29;20223;-73
2023/04/26 04:08:29;;;;;;;17.67;6.30;;;;;0.50;101315.00;;;;9931220;29;20226;-73
2023/04/26 04:13:31;;;;;;;14.10;6.73;;;;;0.50;101300.00;;;;9938299;29;20688;-73
2023/04/26 04:18:32;;;;;;;14.70;6.63;;;;;0.50;101309.00;;;;9937873;29;20989;-72
2023/04/26 04:23:33;;;;;;;13.70;7.40;;;;;0.60;101307.00;;;;9922778;29;20736;-73
2023/04/26 04:28:40;;;;;;;9.77;6.40;;;;;0.70;101301.00;;;;9937085;29;20263;-73
2023/04/26 04:33:41;;;;;;;12.83;6.47;;;;;0.80;101308.00;;;;9939229;29;20275;-74
2023/04/26 04:38:44;;;;;;;11.23;6.30;;;;;0.90;101307.00;;;;9933237;29;20280;-74
2023/04/26 04:43:47;;;;;;;11.63;5.80;;;;;1.00;101310.00;;;;9918445;29;20683;-74
2023/04/26 04:48:48;;;;;;;8.57;5.37;;;;;1.20;101311.00;;;;9934165;29;20577;-75
2023/04/26 04:53:50;;;;;;;17.43;7.40;;;;;1.40;101321.00;;;;9937561;29;20956;-73
2023/04/26 04:58:52;;;;;;;12.67;7.23;;;;;1.60;101322.00;;;;9936061;29;20219;-73
2023/04/26 05:03:55;;;;;;;11.00;6.63;;;;;1.90;101330.00;;;;9931058;29;20239;-73
2023/04/26 05:08:58;;;;;;;12.60;6.80;;;;;2.10;101318.00;;;;9922870;29;20223;-73
2023/04/26 05:14:00;;;;;;;17.57;7.57;;;;;2.30;101328.00;;;;9937806;29;20226;-73
2023/04/26 05:19:03;;;;;;;18.43;7.67;;;;;2.60;101337.00;;;;9920787;29;20227;-73
2023/04/26 05:24:05;;;;;;;20.33;8.47;;;;;2.80;101338.00;;;;9935440;29;20219;-73
2023/04/26 05:29:07;;;;;;;14.73;7.87;;;;;3.00;101345.00;;;;9924418;29;20243;-73
2023/04/26 05:34:20;;;;;;;19.97;9.13;;;;;3.10;101355.00;;;;9898140;29;20238;-73
2023/04/26 05:39:25;;;;;;;18.47;8.77;;;;;3.30;101345.00;;;;9925378;29;20322;-73
2023/04/26 05:44:27;;;;;;;16.73;8.30;;;;;3.60;101364.00;;;;9919496;29;20219;-74
2023/04/26 05:49:28;;;;;;;14.30;7.50;;;;;3.80;101362.00;;;;9936805;29;20222;-73
2023/04/26 05:54:29;;;;;;;16.47;8.53;;;;;4.40;101378.00;;;;9936333;29;20242;-73
2023/04/26 05:59:35;;;;;;;19.30;8.97;;;;;5.00;101376.00;;;;9935027;29;20427;-72
2023/04/26 06:04:37;;;;;;;17.03;8.67;;;;;5.40;101384.00;;;;9934874;29;20222;-73
2023/04/26 06:09:43;;;;;;;17.20;8.17;;;;;6.00;101384.00;;;;9914486;29;20658;-75
2023/04/26 06:14:45;;;;;;;14.90;8.47;;;;;6.40;101395.00;;;;9910069;29;20232;-75
2023/04/26 06:19:51;;;;;;;20.40;9.33;;;;;6.70;101394.00;;;;9941221;29;20326;-73
2023/04/26 06:24:52;;;;;;;15.50;9.53;;;;;7.10;101389.00;;;;9934413;29;20219;-73
2023/04/26 06:29:53;;;;;;;20.97;9.90;;;;;7.40;101403.00;;;;9903133;29;20220;-73
2023/04/26 06:34:57;;;;;;;15.33;10.10;;;;;7.50;101402.00;;;;9917467;29;20223;-73
2023/04/26 06:39:58;;;;;;;18.10;8.13;;;;;7.50;101408.00;;;;9932057;29;20322;-71
2023/04/26 06:45:00;;;;;;;15.77;8.43;;;;;7.60;101399.00;;;;9925560;29;20234;-73
2023/04/26 06:50:03;;;;;;;21.30;8.57;;;;;8.00;101395.00;;;;9940503;29;20790;-73
2023/04/26 06:55:05;;;;;;;13.10;8.80;;;;;8.00;101386.00;;;;9938352;29;20227;-73
2023/04/26 07:00:08;;;;;;;16.57;6.83;;;;;7.70;101390.00;;;;9908703;29;20263;-74
2023/04/26 07:05:09;;;;;;;11.30;6.23;;;;;7.80;101405.00;;;;9915857;29;20857;-73
2023/04/26 07:10:12;;;;;;;13.83;7.60;;;;;9.00;101399.00;;;;9937154;29;20241;-74
2023/04/26 07:15:14;;;;;;;13.80;6.73;;;;;10.10;101397.00;;;;9903822;29;20220;-73
2023/04/26 07:20:18;;;;;;;15.17;7.50;;;;;10.20;101393.00;;;;9902708;29;20261;-74
2023/04/26 07:25:19;;;;;;;11.80;7.03;;;;;9.90;101389.00;;;;9911093;29;20223;-72
2023/04/26 07:30:21;;;;;;;13.50;5.73;;;;;9.70;101398.00;;;;9938586;29;20246;-72
2023/04/26 07:35:22;;;;;;;11.30;6.20;;;;;10.10;101392.00;;;;9939443;29;20215;-73
2023/04/26 07:40:25;;;;;;;11.27;4.07;;;;;10.30;101407.00;;;;9939467;29;20230;-73
2023/04/26 07:45:26;;;;;;;14.77;4.67;;;;;10.30;101413.00;;;;9943914;29;20244;-72
2023/04/26 07:50:28;;;;;;;7.97;4.17;;;;;11.50;101405.00;;;;9901013;29;20223;-73
2023/04/26 07:55:30;;;;;;;8.37;3.87;;;;;12.50;101402.00;;;;9900239;29;20792;-73
2023/04/26 08:00:31;;;;;;;7.53;3.23;;;;;12.50;101400.00;;;;9902556;29;20278;-72
2023/04/26 08:05:33;;;;;;;6.40;3.47;;;;;12.40;101409.00;;;;9885856;29;20387;-74
2023/04/26 08:10:37;;;;;;;7.70;2.57;;;;;12.20;101400.00;;;;9905014;29;20654;-73
2023/04/26 08:15:38;;;;;;;7.43;3.33;;;;;12.60;101411.00;;;;9950454;29;20291;-74
2023/04/26 08:20:40;;;;;;;9.20;4.27;;;;;12.90;101396.00;;;;9915004;29;20253;-73
2023/04/26 08:25:41;;;;;;;9.83;4.63;;;;;13.00;101393.00;;;;9942361;29;20732;-74
2023/04/26 08:30:42;;;;;;;9.57;4.20;;;;;12.90;101394.00;;;;9933375;29;20218;-75
2023/04/26 08:35:44;;;;;;;11.47;4.43;;;;;13.30;101399.00;;;;9911613;29;20222;-73
2023/04/26 08:40:50;;;;;;;7.03;3.90;;;;;13.50;101391.00;;;;9932425;29;20222;-73
2023/04/26 08:45:52;;;;;;;9.87;4.10;;;;;13.20;101382.00;;;;9933720;29;20265;-74
2023/04/26 08:50:54;;;;;;;4.13;2.90;;;;;14.10;101370.00;;;;9919164;29;20261;-74
2023/04/26 08:55:56;;;;;;;12.43;4.60;;;;;15.80;101378.00;;;;9921633;29;20227;-73
2023/04/26 09:01:00;;;;;;;8.93;3.83;;;;;16.20;101368.00;;;;9918608;29;20254;-74
2023/04/26 09:06:02;;;;;;;11.20;4.55;;;;;15.80;101369.00;;;;9911775;29;20726;-73
2023/04/26 09:11:06;;;;;;;10.98;4.47;;;;;15.90;101379.00;;;;9932820;29;20231;-73
2023/04/26 09:16:08;;;;;;;10.63;4.38;;;;;15.40;101385.00;;;;9930557;29;20221;-74
2023/04/26 09:21:09;;;;;;;8.02;3.58;;;;;15.50;101375.00;;;;9916530;29;20318;-74
2023/04/26 09:26:21;;;;;;;6.53;3.30;;;;;16.00;101380.00;;;;9933474;29;20602;-73
2023/04/26 09:31:41;;;;;;;7.22;3.50;;;;;16.50;101376.00;;;;9917030;29;20595;-73
2023/04/26 09:37:00;;;;;;;6.15;3.97;;;;;17.10;101361.00;;;;9910108;29;20636;-75
2023/04/26 09:42:20;;;;;;;7.13;3.15;;;;;18.30;101371.00;;;;9925894;29;20249;-73
2023/04/26 09:47:21;;;;;;;5.45;4.10;;;;;19.10;101374.00;;;;9928795;29;20222;-74
2023/04/26 09:52:23;;;;;;;10.80;4.40;;;;;18.70;101377.00;;;;9909601;29;20234;-74
2023/04/26 09:57:24;;;;;;;4.93;2.90;;;;;18.90;101371.00;;;;9906677;29;20214;-74
2023/04/26 10:02:27;;;;;;;9.23;4.53;;;;;19.70;101369.00;;;;9918403;29;20231;-73
2023/04/26 10:07:29;;;;;;;7.00;3.33;;;;;19.30;101361.00;;;;9928272;29;20296;-73
2023/04/26 10:12:30;;;;;;;7.80;3.30;;;;;19.20;101365.00;;;;9927354;29;20225;-73
2023/04/26 10:17:31;;;;;;;9.85;3.85;;;;;19.50;101365.00;;;;9943028;29;20227;-73
2023/04/26 10:22:38;;;;;;;5.85;3.10;;;;;19.80;101344.00;;;;9942355;29;20686;-74
2023/04/26 10:27:46;;;;;;;7.40;3.53;;;;;19.80;101352.00;;;;9925987;29;20264;-74
2023/04/26 10:32:56;;;;;;;7.45;2.85;;;;;18.90;101342.00;;;;9937139;29;20211;-75
2023/04/26 10:38:00;;;;;;;6.43;3.45;;;;;20.00;101338.00;;;;9924595;29;20231;-74
2023/04/26 10:43:28;;;;;;;6.85;3.05;;;;;20.20;101323.00;;;;9897632;29;20231;-73
2023/04/26 10:48:30;;;;;;;4.05;3.00;;;;;20.40;101324.00;;;;9923648;29;20230;-74
2023/04/26 10:53:47;;;;;;;7.00;3.13;;;;;20.00;101326.00;;;;9912735;29;20591;-73
2023/04/26 10:59:05;;;;;;;5.38;2.85;;;;;20.30;101306.00;;;;9905787;29;20219;-74
2023/04/26 11:04:50;;;;;;;7.68;2.60;;;;;20.70;101307.00;;;;9914543;29;20681;-74
2023/04/26 11:09:51;;;;;;;8.77;2.72;;;;;20.70;101303.00;;;;9938550;29;20309;-74
2023/04/26 11:14:53;;;;;;;5.60;2.90;;;;;20.70;101304.00;;;;9926562;29;20310;-75
2023/04/26 11:19:54;;;;;;;8.43;2.90;;;;;21.10;101294.00;;;;9916610;29;20219;-73
2023/04/26 11:24:55;;;;;;;4.72;2.80;;;;;21.20;101291.00;;;;9916522;29;20226;-74
2023/04/26 11:29:56;;;;;;;4.93;2.60;;;;;21.20;101294.00;;;;9903816;29;20235;-73
2023/04/26 11:34:59;;;;;;;8.68;3.33;;;;;20.60;101285.00;;;;9922214;29;20224;-73
2023/04/26 11:40:01;;;;;;;6.63;3.17;;;;;21.40;101283.00;;;;9923927;29;20220;-73
2023/04/26 11:45:05;;;;;;;8.48;3.05;;;;;22.00;101277.00;;;;9926460;29;20246;-73
2023/04/26 11:50:08;;;;;;;5.32;2.78;;;;;21.80;101272.00;;;;9935389;29;20261;-74
2023/04/26 11:55:10;;;;;;;6.35;3.45;;;;;21.50;101276.00;;;;9919560;29;21052;-74
2023/04/26 12:00:13;;;;;;;7.75;3.17;;;;;21.50;101283.00;;;;9903272;29;20599;-75
2023/04/26 12:05:26;;;;;;;6.25;3.63;;;;;21.70;101276.00;;;;9934471;29;20233;-75
2023/04/26 12:10:30;;;;;;;8.20;3.85;;;;;21.60;101278.00;;;;9914213;29;20674;-74
2023/04/26 12:15:33;;;;;;;9.07;3.60;;;;;22.00;101282.00;;;;9940831;29;20306;-74
2023/04/26 12:20:41;;;;;;;6.97;3.22;;;;;21.50;101289.00;;;;9940472;29;20915;-74
2023/04/26 12:25:58;;;;;;;4.60;2.95;;;;;21.60;101275.00;;;;9960092;29;20211;-73
2023/04/26 12:31:00;;;;;;;6.28;3.50;;;;;22.10;101281.00;;;;9952220;29;20913;-75
2023/04/26 12:36:11;;;;;;;4.95;3.53;;;;;21.70;101286.00;;;;9933360;29;20246;-75
2023/04/26 12:41:13;;;;;;;7.22;3.75;;;;;21.30;101285.00;;;;9902118;29;20283;-74
2023/04/26 12:46:14;;;;;;;4.65;3.40;;;;;21.10;101269.00;;;;9935372;29;21022;-73
2023/04/26 12:51:15;;;;;;;6.57;3.90;;;;;21.50;101276.00;;;;9927685;29;20594;-74
2023/04/26 12:56:18;;;;;;;6.65;3.78;;;;;21.10;101279.00;;;;9901771;29;20318;-75
2023/04/26 13:01:19;;;;;;;8.10;4.15;;;;;21.40;101277.00;;;;9939933;29;20562;-76
2023/04/26 13:06:21;;;;;;;4.80;3.17;;;;;21.80;101272.00;;;;9927102;29;20227;-77
2023/04/26 13:11:22;;;;;;;6.18;3.17;;;;;22.10;101272.00;;;;9917483;29;20239;-75
2023/04/26 13:16:23;;;;;;;6.18;3.38;;;;;23.10;101272.00;;;;9919272;29;20242;-75
2023/04/26 13:21:25;;;;;;;4.18;2.55;;;;;23.30;101268.00;;;;9930157;29;20222;-74
2023/04/26 13:26:26;;;;;;;7.13;3.80;;;;;23.10;101264.00;;;;9924072;29;20207;-74
2023/04/26 13:31:29;;;;;;;6.80;3.45;;;;;22.90;101260.00;;;;9924854;29;20242;-75
2023/04/26 13:36:31;;;;;;;8.80;3.58;;;;;22.80;101264.00;;;;9926442;29;20219;-74
2023/04/26 13:41:33;;;;;;;10.82;3.00;;;;;22.30;101256.00;;;;9917650;29;20225;-74
2023/04/26 13:46:35;;;;;;;4.85;2.92;;;;;22.00;101262.00;;;;9951198;29;20219;-74
2023/04/26 13:51:36;;;;;;;7.82;3.25;;;;;23.70;101250.00;;;;9937358;29;20254;-74
2023/04/26 13:56:38;;;;;;;6.25;3.33;;;;;26.40;101243.00;;;;9937578;29;20199;-74
2023/04/26 14:01:39;;;;;;;5.35;3.53;;;;;26.50;101263.00;;;;9919735;29;20219;-75
2023/04/26 14:06:41;;;;;;;4.93;3.80;;;;;27.00;101241.00;;;;9936310;29;20214;-75
2023/04/26 14:11:43;;;;;;;5.53;3.28;;;;;28.50;101230.00;;;;9927627;29;20223;-74
2023/04/26 14:16:48;;;;;;;9.43;4.38;;;;;29.00;101240.00;;;;9919912;29;20224;-75
2023/04/26 14:21:49;;;;;;;7.47;4.25;;;;;29.60;101229.00;;;;9952990;29;20215;-75
2023/04/26 14:26:50;;;;;;;4.63;3.42;;;;;29.00;101251.00;;;;9943504;29;20215;-74
2023/04/26 14:31:52;;;;;;;8.40;4.20;;;;;25.30;101234.00;;;;9936837;29;20227;-76
2023/04/26 14:36:56;;;;;;;7.00;3.80;;;;;24.80;101238.00;;;;9941379;29;20263;-74
2023/04/26 14:41:57;;;;;;;11.77;4.28;;;;;23.90;101228.00;;;;9931498;29;20204;-74
2023/04/26 14:46:58;;;;;;;8.25;4.03;;;;;26.10;101238.00;;;;9905759;29;20307;-75
2023/04/26 14:51:59;;;;;;;5.05;2.90;;;;;25.70;101212.00;;;;9942344;29;20223;-75
2023/04/26 14:57:01;;;;;;;6.55;3.88;;;;;25.00;101223.00;;;;9921992;29;20314;-75
2023/04/26 15:02:03;;;;;;;6.85;4.18;;;;;21.60;101224.00;;;;9906454;29;20701;-75
2023/04/26 15:07:05;;;;;;;8.85;3.70;;;;;19.20;101223.00;;;;9929515;29;20259;-74
2023/04/26 15:12:06;;;;;;;8.23;4.03;;;;;18.20;101218.00;;;;9920693;29;20238;-75
2023/04/26 15:17:08;;;;;;;11.10;4.65;;;;;17.30;101219.00;;;;9903794;29;20231;-74
2023/04/26 15:22:09;;;;;;;7.32;4.28;;;;;16.50;101214.00;;;;9941648;29;20242;-74
2023/04/26 15:27:11;;;;;;;6.35;3.58;;;;;15.70;101198.00;;;;9940472;29;20250;-74
2023/04/26 15:32:12;;;;;;;6.95;3.33;;;;;15.30;101201.00;;;;9927425;29;20259;-74
2023/04/26 15:37:14;;;;;;;6.50;3.67;;;;;15.50;101186.00;;;;9939929;29;20392;-74
2023/04/26 15:42:15;;;;;;;6.82;3.63;;;;;16.30;101188.00;;;;9936431;29;20723;-74
2023/04/26 15:47:16;;;;;;;5.80;3.50;;;;;16.60;101194.00;;;;9925073;29;20230;-76
2023/04/26 15:52:18;;;;;;;4.88;3.60;;;;;16.30;101195.00;;;;9912228;29;20254;-73
2023/04/26 15:57:19;;;;;;;9.10;3.63;;;;;16.00;101185.00;;;;9901947;29;20238;-73
2023/04/26 16:02:20;;;;;;;7.82;3.55;;;;;15.90;101203.00;;;;9915289;29;20242;-73
2023/04/26 16:07:22;;;;;;;6.65;3.15;;;;;16.00;101195.00;;;;9924330;29;20275;-73
2023/04/26 16:12:23;;;;;;;7.47;3.75;;;;;15.50;101187.00;;;;9938150;29;20250;-73
2023/04/26 16:17:24;;;;;;;6.97;3.30;;;;;15.30;101185.00;;;;9918444;29;20314;-73
2023/04/26 16:22:26;;;;;;;11.10;4.22;;;;;15.40;101186.00;;;;9913712;29;20637;-73
2023/04/26 16:27:28;;;;;;;9.52;4.15;;;;;15.00;101187.00;;;;9922264;29;20690;-73
2023/04/26 16:32:30;;;;;;;7.22;4.20;;;;;14.50;101190.00;;;;9936923;29;20222;-75
2023/04/26 16:37:31;;;;;;;7.07;3.63;;;;;14.40;101188.00;;;;9931021;29;20226;-73
2023/04/26 16:42:32;;;;;;;4.80;3.63;;;;;14.30;101178.00;;;;9935561;29;20246;-74
2023/04/26 16:47:34;;;;;;;6.73;3.80;;;;;14.30;101178.00;;;;9912948;29;20286;-73
2023/04/26 16:52:35;;;;;;;10.47;3.97;;;;;14.20;101184.00;;;;9942316;29;20231;-75
2023/04/26 16:57:36;;;;;;;8.17;3.60;;;;;14.00;101185.00;;;;9895634;29;20879;-74
2023/04/26 17:02:39;;;;;;;7.27;3.63;;;;;13.90;101189.00;;;;9920197;29;20247;-75
2023/04/26 17:07:40;;;;;;;7.70;3.80;;;;;14.10;101191.00;;;;9909891;29;20230;-75
2023/04/26 17:12:41;;;;;;;6.37;3.77;;;;;14.00;101195.00;;;;9923317;29;20223;-73
2023/04/26 17:17:43;;;;;;;10.37;4.10;;;;;13.80;101193.00;;;;9929117;29;20215;-75
2023/04/26 17:22:44;;;;;;;10.30;4.50;;;;;13.50;101191.00;;;;9905147;29;20578;-75
2023/04/26 17:27:45;;;;;;;7.10;4.60;;;;;13.30;101196.00;;;;9932219;29;20229;-74
2023/04/26 17:32:47;;;;;;;9.43;4.87;;;;;13.10;101202.00;;;;9954306;29;20241;-73
2023/04/26 17:37:49;;;;;;;9.03;4.53;;;;;12.90;101213.00;;;;9952975;29;20213;-74
2023/04/26 17:42:50;;;;;;;7.60;4.97;;;;;12.70;101209.00;;;;9947411;29;20210;-75
2023/04/26 17:47:52;;;;;;;9.20;4.90;;;;;12.40;101216.00;;;;9946829;29;20250;-73
2023/04/26 17:52:53;;;;;;;9.20;5.00;;;;;12.20;101213.00;;;;9920736;29;20919;-73
2023/04/26 17:57:54;;;;;;;8.70;5.00;;;;;12.10;101224.00;;;;9953769;29;20237;-73
2023/04/26 18:02:56;;;;;;;7.83;5.40;;;;;11.90;101228.00;;;;9920110;29;20214;-75
2023/04/26 18:07:58;;;;;;;8.77;5.90;;;;;11.70;101241.00;;;;9934512;29;20296;-75
2023/04/26 18:13:00;;;;;;;9.27;5.37;;;;;11.40;101238.00;;;;9911815;29;20227;-74
2023/04/26 18:18:04;;;;;;;7.70;5.83;;;;;11.10;101250.00;;;;9880878;29;20218;-73
2023/04/26 18:23:05;;;;;;;8.73;5.40;;;;;10.90;101248.00;;;;9924243;29;20278;-76
2023/04/26 18:28:07;;;;;;;8.03;6.10;;;;;10.70;101247.00;;;;9917176;29;20639;-73
2023/04/26 18:33:08;;;;;;;7.40;5.97;;;;;10.40;101257.00;;;;9912994;29;20717;-73
2023/04/26 18:38:10;;;;;;;11.50;7.10;;;;;10.20;101259.00;;;;9904285;29;20229;-73
2023/04/26 18:43:11;;;;;;;8.80;5.97;;;;;10.00;101254.00;;;;9915635;29;20681;-73
2023/04/26 18:48:12;;;;;;;11.03;6.03;;;;;9.70;101264.00;;;;9922131;29;20321;-74
2023/04/26 18:53:14;;;;;;;10.13;6.17;;;;;9.50;101265.00;;;;9902114;29;20237;-74
2023/04/26 18:58:15;;;;;;;10.50;6.70;;;;;9.30;101264.00;;;;9927806;29;20259;-73
2023/04/26 19:03:17;;;;;;;7.77;6.60;;;;;9.20;101277.00;;;;9924313;29;20222;-73
2023/04/26 19:08:18;;;;;;;13.00;6.30;;;;;9.00;101278.00;;;;9940443;29;20223;-73
2023/04/26 19:13:20;;;;;;;8.83;6.40;;;;;8.90;101280.00;;;;9942383;29;20888;-76
2023/04/26 19:18:22;;;;;;;9.03;6.23;;;;;8.80;101279.00;;;;9918303;29;20216;-72
2023/04/26 19:23:23;;;;;;;8.70;6.73;;;;;8.70;101279.00;;;;9903443;29;20227;-73
2023/04/26 19:28:24;;;;;;;13.97;7.43;;;;;8.50;101287.00;;;;9909890;29;20256;-74
2023/04/26 19:33:26;;;;;;;9.53;7.00;;;;;8.40;101292.00;;;;9921348;29;20254;-76
2023/04/26 19:38:28;;;;;;;9.33;6.30;;;;;8.30;101300.00;;;;9915195;29;20252;-73
2023/04/26 19:43:29;;;;;;;10.07;6.73;;;;;8.10;101297.00;;;;9917648;29;20527;-73
2023/04/26 19:48:30;;;;;;;15.90;6.03;;;;;8.00;101294.00;;;;9900873;29;20238;-76
2023/04/26 19:53:33;;;;;;;8.37;6.97;;;;;8.00;101298.00;;;;9904320;29;21115;-77
2023/04/26 19:58:35;;;;;;;9.33;6.13;;;;;7.90;101295.00;;;;9910519;29;20306;-76
2023/04/26 20:03:39;;;;;;;11.97;6.70;;;;;7.90;101299.00;;;;9917692;29;20996;-74
2023/04/26 20:08:40;;;;;;;6.97;5.70;;;;;7.80;101300.00;;;;9917042;29;20231;-73
2023/04/26 20:13:42;;;;;;;12.50;6.33;;;;;7.80;101319.00;;;;9912912;29;20241;-75
2023/04/26 20:18:44;;;;;;;10.27;6.23;;;;;7.70;101318.00;;;;9910935;29;20211;-75
2023/04/26 20:23:45;;;;;;;10.10;6.30;;;;;7.60;101309.00;;;;9894787;29;20227;-76
2023/04/26 20:28:47;;;;;;;10.73;6.40;;;;;7.60;101313.00;;;;9901104;29;20227;-75
2023/04/26 20:33:48;;;;;;;9.63;6.30;;;;;7.60;101315.00;;;;9916456;29;20227;-75
2023/04/26 20:38:50;;;;;;;9.00;5.93;;;;;7.50;101324.00;;;;9900087;29;20722;-75
2023/04/26 20:43:51;;;;;;;15.93;6.17;;;;;7.40;101325.00;;;;9914683;29;20218;-75
2023/04/26 20:48:53;;;;;;;8.57;6.23;;;;;7.40;101326.00;;;;9904967;29;20872;-75
2023/04/26 20:53:55;;;;;;;10.27;6.00;;;;;7.30;101334.00;;;;9898893;29;20326;-74
2023/04/26 20:58:56;;;;;;;8.60;6.53;;;;;7.20;101338.00;;;;9906194;29;20248;-75
2023/04/26 21:03:58;;;;;;;8.73;5.77;;;;;7.20;101331.00;;;;9890620;29;20246;-76
2023/04/26 21:08:59;;;;;;;10.60;6.10;;;;;7.20;101332.00;;;;9906306;29;20269;-76
2023/04/26 21:14:01;;;;;;;7.50;5.77;;;;;7.20;101329.00;;;;9917718;29;20254;-75
2023/04/26 21:19:03;;;;;;;9.53;6.03;;;;;7.00;101327.00;;;;9915586;29;20235;-75
2023/04/26 21:24:05;;;;;;;10.23;5.77;;;;;6.90;101334.00;;;;9918252;29;20245;-75
2023/04/26 21:29:07;;;;;;;11.43;5.90;;;;;6.70;101339.00;;;;9905337;29;20263;-75
2023/04/26 21:34:08;;;;;;;15.13;6.57;;;;;6.60;101342.00;;;;9923792;29;20307;-75
2023/04/26 21:39:10;;;;;;;8.00;5.83;;;;;6.50;101342.00;;;;9911844;29;20218;-74
2023/04/26 21:44:12;;;;;;;10.23;6.30;;;;;6.40;101343.00;;;;9922383;29;20216;-75
2023/04/26 21:49:13;;;;;;;11.13;6.40;;;;;6.30;101338.00;;;;9939037;29;20265;-74
2023/04/26 21:54:14;;;;;;;9.60;6.60;;;;;6.20;101334.00;;;;9931924;29;20307;-75
2023/04/26 21:59:16;;;;;;;13.33;8.80;;;;;6.10;101328.00;;;;9927141;29;20262;-75
2023/04/26 22:04:17;;;;;;;12.27;7.67;;;;;6.00;101320.00;;;;9923366;29;20242;-76
2023/04/26 22:09:20;;;;;;;12.37;8.30;;;;;5.90;101330.00;;;;9920963;29;20620;-75
2023/04/26 22:14:21;;;;;;;13.00;8.33;;;;;5.80;101329.00;;;;9934327;29;20717;-75
2023/04/26 22:19:22;;;;;;;15.47;7.80;;;;;5.60;101330.00;;;;9920756;29;20259;-77
2023/04/26 22:24:24;;;;;;;13.23;7.50;;;;;5.50;101329.00;;;;9908174;29;20224;-75
2023/04/26 22:29:25;;;;;;;11.57;7.17;;;;;5.40;101335.00;;;;9939838;29;20768;-74
2023/04/26 22:34:26;;;;;;;9.73;6.80;;;;;5.20;101335.00;;;;9924657;29;20246;-75
2023/04/26 22:39:28;;;;;;;13.67;7.77;;;;;5.10;101345.00;;;;9911536;29;20255;-77
2023/04/26 22:44:29;;;;;;;13.57;7.73;;;;;4.90;101338.00;;;;9901856;29;20435;-74
2023/04/26 22:49:30;;;;;;;14.13;8.57;;;;;4.80;101340.00;;;;9901921;29;20606;-74
2023/04/26 22:54:31;;;;;;;10.67;7.53;;;;;4.70;101347.00;;;;9916862;29;20296;-75
2023/04/26 22:59:33;;;;;;;14.07;9.83;;;;;4.60;101362.00;;;;9903525;29;20219;-74
2023/04/26 23:04:34;;;;;;;9.77;7.97;;;;;4.50;101365.00;;;;9901487;29;20231;-75
2023/04/26 23:09:36;;;;;;;13.57;9.30;;;;;4.40;101361.00;;;;9944284;29;20234;-76
2023/04/26 23:14:37;;;;;;;13.53;8.67;;;;;4.30;101370.00;;;;9902546;29;20223;-74
2023/04/26 23:19:39;;;;;;;13.20;8.37;;;;;4.20;101365.00;;;;9909440;29;20522;-74
2023/04/26 23:24:40;;;;;;;17.53;8.77;;;;;4.10;101367.00;;;;9911816;29;20224;-74
2023/04/26 23:29:42;;;;;;;12.80;8.33;;;;;4.10;101386.00;;;;9901548;29;20365;-74
2023/04/26 23:34:43;;;;;;;13.47;8.13;;;;;4.00;101382.00;;;;9919929;29;20230;-75
2023/04/26 23:39:44;;;;;;;10.63;7.70;;;;;3.90;101387.00;;;;9931627;29;20279;-75
2023/04/26 23:44:46;;;;;;;10.97;8.10;;;;;3.90;101382.00;;;;9943393;29;20206;-74
2023/04/26 23:49:47;;;;;;;13.73;8.60;;;;;3.80;101396.00;;;;9917190;29;20226;-74
2023/04/26 23:54:48;;;;;;;17.77;8.47;;;;;3.70;101399.00;;;;9900074;29;20222;-76
2023/04/26 23:59:51;;;;;;;11.30;7.93;;;;;3.70;101396.00;;;;9900689;29;20216;-74
